sensor_id;sensor_type;location;lat;lon;timestamp;temperature;humidity
35258;DHT22;21385;50.878;8.050;2023-08-21T00:02:01;23.20;99.90
35258;DHT22;21385;50.878;8.050;2023-08-21T00:04:26;23.30;99.90
35258;DHT22;21385;50.878;8.050;2023-08-21T00:06:52;23.30;99.90
35258;DHT22;21385;50.878;8.050;2023-08-21T00:09:17;23.30;99.90
35258;DHT22;21385;50.878;8.050;2023-08-21T00:11:43;23.20;99.90
35258;DHT22;21385;50.878;8.050;2023-08-21T00:14:08;23.30;99.90
35258;DHT22;21385;50.878;8.050;2023-08-21T00:16:34;23.30;99.90
35258;DHT22;21385;50.878;8.050;2023-08-21T00:19:00;23.30;99.90
35258;DHT22;21385;50.878;8.050;2023-08-21T00:21:25;23.20;99.90
35258;DHT22;21385;50.878;8.050;2023-08-21T00:23:51;23.20;99.90
35258;DHT22;21385;50.878;8.050;2023-08-21T00:26:17;23.20;99.90
35258;DHT22;21385;50.878;8.050;2023-08-21T00:28:43;23.30;99.90
35258;DHT22;21385;50.878;8.050;2023-08-21T00:31:08;23.30;99.90
35258;DHT22;21385;50.878;8.050;2023-08-21T00:33:34;23.30;99.90
35258;DHT22;21385;50.878;8.050;2023-08-21T00:36:00;23.30;99.90
35258;DHT22;21385;50.878;8.050;2023-08-21T00:38:25;23.30;99.90
35258;DHT22;21385;50.878;8.050;2023-08-21T00:40:52;23.30;99.90
35258;DHT22;21385;50.878;8.050;2023-08-21T00:43:18;23.10;99.90
35258;DHT22;21385;50.878;8.050;2023-08-21T00:45:44;23.00;99.90
35258;DHT22;21385;50.878;8.050;2023-08-21T00:48:11;23.10;99.90
35258;DHT22;21385;50.878;8.050;2023-08-21T00:50:38;23.10;99.90
35258;DHT22;21385;50.878;8.050;2023-08-21T00:53:04;23.10;99.90
35258;DHT22;21385;50.878;8.050;2023-08-21T00:55:31;23.00;99.90
35258;DHT22;21385;50.878;8.050;2023-08-21T00:57:57;23.00;99.90
35258;DHT22;21385;50.878;8.050;2023-08-21T01:00:24;23.10;99.90
35258;DHT22;21385;50.878;8.050;2023-08-21T01:02:50;23.00;99.90
35258;DHT22;21385;50.878;8.050;2023-08-21T01:05:18;23.00;99.90
35258;DHT22;21385;50.878;8.050;2023-08-21T01:08:04;23.00;99.90
35258;DHT22;21385;50.878;8.050;2023-08-21T01:10:38;22.90;99.90
35258;DHT22;21385;50.878;8.050;2023-08-21T01:16:32;23.00;99.90
35258;DHT22;21385;50.878;8.050;2023-08-21T01:18:59;23.00;99.90
35258;DHT22;21385;50.878;8.050;2023-08-21T01:21:25;23.00;99.90
35258;DHT22;21385;50.878;8.050;2023-08-21T01:23:51;22.90;99.90
35258;DHT22;21385;50.878;8.050;2023-08-21T01:26:16;22.80;99.90
35258;DHT22;21385;50.878;8.050;2023-08-21T01:28:42;22.70;99.90
35258;DHT22;21385;50.878;8.050;2023-08-21T01:31:28;22.60;99.90
35258;DHT22;21385;50.878;8.050;2023-08-21T01:33:59;22.50;99.90
35258;DHT22;21385;50.878;8.050;2023-08-21T01:36:27;22.60;99.90
35258;DHT22;21385;50.878;8.050;2023-08-21T01:38:53;22.50;99.90
35258;DHT22;21385;50.878;8.050;2023-08-21T01:41:19;22.50;99.90
35258;DHT22;21385;50.878;8.050;2023-08-21T01:43:44;22.60;99.90
35258;DHT22;21385;50.878;8.050;2023-08-21T01:46:10;22.70;99.90
35258;DHT22;21385;50.878;8.050;2023-08-21T01:48:36;22.70;99.90
35258;DHT22;21385;50.878;8.050;2023-08-21T01:51:02;22.70;99.90
35258;DHT22;21385;50.878;8.050;2023-08-21T01:53:28;22.70;99.90
35258;DHT22;21385;50.878;8.050;2023-08-21T01:55:53;22.60;99.90
35258;DHT22;21385;50.878;8.050;2023-08-21T01:58:19;22.40;99.90
35258;DHT22;21385;50.878;8.050;2023-08-21T02:00:48;22.40;99.90
35258;DHT22;21385;50.878;8.050;2023-08-21T02:03:14;22.30;99.90
35258;DHT22;21385;50.878;8.050;2023-08-21T02:05:40;22.30;99.90
35258;DHT22;21385;50.878;8.050;2023-08-21T02:08:09;22.40;99.90
35258;DHT22;21385;50.878;8.050;2023-08-21T02:10:35;22.50;99.90
35258;DHT22;21385;50.878;8.050;2023-08-21T02:13:00;22.60;99.90
35258;DHT22;21385;50.878;8.050;2023-08-21T02:15:26;22.50;99.90
35258;DHT22;21385;50.878;8.050;2023-08-21T02:17:51;22.60;99.90
35258;DHT22;21385;50.878;8.050;2023-08-21T02:20:17;22.40;99.90
35258;DHT22;21385;50.878;8.050;2023-08-21T02:22:43;22.30;99.90
35258;DHT22;21385;50.878;8.050;2023-08-21T02:25:08;22.20;99.90
35258;DHT22;21385;50.878;8.050;2023-08-21T02:27:34;22.10;99.90
35258;DHT22;21385;50.878;8.050;2023-08-21T02:30:00;22.00;99.90
35258;DHT22;21385;50.878;8.050;2023-08-21T02:32:25;22.00;99.90
35258;DHT22;21385;50.878;8.050;2023-08-21T02:34:51;21.90;99.90
35258;DHT22;21385;50.878;8.050;2023-08-21T02:37:16;21.90;99.90
35258;DHT22;21385;50.878;8.050;2023-08-21T02:39:42;21.90;99.90
35258;DHT22;21385;50.878;8.050;2023-08-21T02:42:07;21.90;99.90
35258;DHT22;21385;50.878;8.050;2023-08-21T02:44:33;21.90;99.90
35258;DHT22;21385;50.878;8.050;2023-08-21T02:46:58;21.90;99.90
35258;DHT22;21385;50.878;8.050;2023-08-21T02:49:24;21.80;99.90
35258;DHT22;21385;50.878;8.050;2023-08-21T02:51:50;21.80;99.90
35258;DHT22;21385;50.878;8.050;2023-08-21T02:54:15;21.80;99.90
35258;DHT22;21385;50.878;8.050;2023-08-21T02:56:41;21.70;99.90
35258;DHT22;21385;50.878;8.050;2023-08-21T02:59:06;21.60;99.90
35258;DHT22;21385;50.878;8.050;2023-08-21T03:01:32;21.60;99.90
35258;DHT22;21385;50.878;8.050;2023-08-21T03:03:57;21.60;99.90
35258;DHT22;21385;50.878;8.050;2023-08-21T03:06:23;21.60;99.90
35258;DHT22;21385;50.878;8.050;2023-08-21T03:08:48;21.50;99.90
35258;DHT22;21385;50.878;8.050;2023-08-21T03:11:14;21.60;99.90
35258;DHT22;21385;50.878;8.050;2023-08-21T03:13:40;21.60;99.90
35258;DHT22;21385;50.878;8.050;2023-08-21T03:16:06;21.60;99.90
35258;DHT22;21385;50.878;8.050;2023-08-21T03:18:32;21.50;99.90
35258;DHT22;21385;50.878;8.050;2023-08-21T03:20:58;21.60;99.90
35258;DHT22;21385;50.878;8.050;2023-08-21T03:23:23;21.60;99.90
35258;DHT22;21385;50.878;8.050;2023-08-21T03:25:52;21.50;99.90
35258;DHT22;21385;50.878;8.050;2023-08-21T03:28:18;21.50;99.90
35258;DHT22;21385;50.878;8.050;2023-08-21T03:30:43;21.50;99.90
35258;DHT22;21385;50.878;8.050;2023-08-21T03:33:09;21.50;99.90
35258;DHT22;21385;50.878;8.050;2023-08-21T03:35:34;21.50;99.90
35258;DHT22;21385;50.878;8.050;2023-08-21T03:38:00;21.50;99.90
35258;DHT22;21385;50.878;8.050;2023-08-21T03:40:25;21.50;99.90
35258;DHT22;21385;50.878;8.050;2023-08-21T03:42:51;21.50;99.90
35258;DHT22;21385;50.878;8.050;2023-08-21T03:45:17;21.40;99.90
35258;DHT22;21385;50.878;8.050;2023-08-21T03:47:42;21.40;99.90
35258;DHT22;21385;50.878;8.050;2023-08-21T03:50:08;21.40;99.90
35258;DHT22;21385;50.878;8.050;2023-08-21T03:52:34;21.30;99.90
35258;DHT22;21385;50.878;8.050;2023-08-21T03:54:59;21.30;99.90
35258;DHT22;21385;50.878;8.050;2023-08-21T03:57:25;21.30;99.90
35258;DHT22;21385;50.878;8.050;2023-08-21T03:59:50;21.20;99.90
35258;DHT22;21385;50.878;8.050;2023-08-21T04:02:16;21.20;99.90
35258;DHT22;21385;50.878;8.050;2023-08-21T04:04:41;21.20;99.90
35258;DHT22;21385;50.878;8.050;2023-08-21T04:07:07;21.30;99.90
35258;DHT22;21385;50.878;8.050;2023-08-21T04:09:33;21.30;99.90
35258;DHT22;21385;50.878;8.050;2023-08-21T04:11:58;21.30;99.90
35258;DHT22;21385;50.878;8.050;2023-08-21T04:14:24;21.20;99.90
35258;DHT22;21385;50.878;8.050;2023-08-21T04:16:49;21.20;99.90
35258;DHT22;21385;50.878;8.050;2023-08-21T04:19:15;21.10;99.90
35258;DHT22;21385;50.878;8.050;2023-08-21T04:21:40;21.10;99.90
35258;DHT22;21385;50.878;8.050;2023-08-21T04:24:07;21.10;99.90
35258;DHT22;21385;50.878;8.050;2023-08-21T04:26:32;21.10;99.90
35258;DHT22;21385;50.878;8.050;2023-08-21T04:28:58;21.20;99.90
35258;DHT22;21385;50.878;8.050;2023-08-21T04:31:23;21.20;99.90
35258;DHT22;21385;50.878;8.050;2023-08-21T04:33:49;21.20;99.90
35258;DHT22;21385;50.878;8.050;2023-08-21T04:36:16;21.30;99.90
35258;DHT22;21385;50.878;8.050;2023-08-21T04:38:42;21.30;99.90
35258;DHT22;21385;50.878;8.050;2023-08-21T04:41:08;21.30;99.90
35258;DHT22;21385;50.878;8.050;2023-08-21T04:43:34;21.30;99.90
35258;DHT22;21385;50.878;8.050;2023-08-21T04:45:59;21.30;99.90
35258;DHT22;21385;50.878;8.050;2023-08-21T04:48:25;21.30;99.90
35258;DHT22;21385;50.878;8.050;2023-08-21T04:50:51;21.20;99.90
35258;DHT22;21385;50.878;8.050;2023-08-21T04:53:16;21.30;99.90
35258;DHT22;21385;50.878;8.050;2023-08-21T04:55:42;21.30;99.90
35258;DHT22;21385;50.878;8.050;2023-08-21T04:58:08;21.30;99.90
35258;DHT22;21385;50.878;8.050;2023-08-21T05:00:34;21.30;99.90
35258;DHT22;21385;50.878;8.050;2023-08-21T05:03:00;21.30;99.90
35258;DHT22;21385;50.878;8.050;2023-08-21T05:05:26;21.40;99.90
35258;DHT22;21385;50.878;8.050;2023-08-21T05:07:54;21.40;99.90
35258;DHT22;21385;50.878;8.050;2023-08-21T05:10:20;21.40;99.90
35258;DHT22;21385;50.878;8.050;2023-08-21T05:12:46;21.40;99.90
35258;DHT22;21385;50.878;8.050;2023-08-21T05:15:12;21.30;99.90
35258;DHT22;21385;50.878;8.050;2023-08-21T05:17:38;21.20;99.90
35258;DHT22;21385;50.878;8.050;2023-08-21T05:20:04;21.10;99.90
35258;DHT22;21385;50.878;8.050;2023-08-21T05:22:29;21.00;99.90
35258;DHT22;21385;50.878;8.050;2023-08-21T05:24:55;20.90;99.90
35258;DHT22;21385;50.878;8.050;2023-08-21T05:27:21;20.90;99.90
35258;DHT22;21385;50.878;8.050;2023-08-21T05:29:46;20.80;99.90
35258;DHT22;21385;50.878;8.050;2023-08-21T05:32:12;20.80;99.90
35258;DHT22;21385;50.878;8.050;2023-08-21T05:34:38;20.70;99.90
35258;DHT22;21385;50.878;8.050;2023-08-21T05:37:03;20.70;99.90
35258;DHT22;21385;50.878;8.050;2023-08-21T05:39:29;20.70;99.90
35258;DHT22;21385;50.878;8.050;2023-08-21T05:41:54;20.60;99.90
35258;DHT22;21385;50.878;8.050;2023-08-21T05:44:20;20.60;99.90
35258;DHT22;21385;50.878;8.050;2023-08-21T05:46:46;20.60;99.90
35258;DHT22;21385;50.878;8.050;2023-08-21T05:49:11;20.70;99.90
35258;DHT22;21385;50.878;8.050;2023-08-21T05:51:37;20.60;99.90
35258;DHT22;21385;50.878;8.050;2023-08-21T05:54:02;20.60;99.90
35258;DHT22;21385;50.878;8.050;2023-08-21T05:56:28;20.60;99.90
35258;DHT22;21385;50.878;8.050;2023-08-21T05:58:54;20.60;99.90
35258;DHT22;21385;50.878;8.050;2023-08-21T06:01:19;20.60;99.90
35258;DHT22;21385;50.878;8.050;2023-08-21T06:03:45;20.60;99.90
35258;DHT22;21385;50.878;8.050;2023-08-21T06:06:10;20.70;99.90
35258;DHT22;21385;50.878;8.050;2023-08-21T06:08:36;20.70;99.90
35258;DHT22;21385;50.878;8.050;2023-08-21T06:11:02;20.70;99.90
35258;DHT22;21385;50.878;8.050;2023-08-21T06:13:27;20.70;99.90
35258;DHT22;21385;50.878;8.050;2023-08-21T06:15:54;20.80;99.90
35258;DHT22;21385;50.878;8.050;2023-08-21T06:18:19;20.80;99.90
35258;DHT22;21385;50.878;8.050;2023-08-21T06:20:45;20.90;99.90
35258;DHT22;21385;50.878;8.050;2023-08-21T06:23:11;20.90;99.90
35258;DHT22;21385;50.878;8.050;2023-08-21T06:25:37;21.00;99.90
35258;DHT22;21385;50.878;8.050;2023-08-21T06:28:03;21.00;99.90
35258;DHT22;21385;50.878;8.050;2023-08-21T06:30:29;21.10;99.90
35258;DHT22;21385;50.878;8.050;2023-08-21T06:32:55;21.10;99.90
35258;DHT22;21385;50.878;8.050;2023-08-21T06:35:21;21.20;99.90
35258;DHT22;21385;50.878;8.050;2023-08-21T06:37:46;21.20;99.90
35258;DHT22;21385;50.878;8.050;2023-08-21T06:40:12;21.30;99.90
35258;DHT22;21385;50.878;8.050;2023-08-21T06:42:38;21.30;99.90
35258;DHT22;21385;50.878;8.050;2023-08-21T06:45:06;21.40;99.90
35258;DHT22;21385;50.878;8.050;2023-08-21T06:47:33;21.50;99.90
35258;DHT22;21385;50.878;8.050;2023-08-21T06:49:58;21.60;99.90
35258;DHT22;21385;50.878;8.050;2023-08-21T06:52:26;21.60;99.90
35258;DHT22;21385;50.878;8.050;2023-08-21T06:54:52;21.60;99.90
35258;DHT22;21385;50.878;8.050;2023-08-21T06:57:17;21.70;99.90
35258;DHT22;21385;50.878;8.050;2023-08-21T06:59:43;21.80;99.90
35258;DHT22;21385;50.878;8.050;2023-08-21T07:02:08;21.80;99.90
35258;DHT22;21385;50.878;8.050;2023-08-21T07:04:34;21.90;99.90
35258;DHT22;21385;50.878;8.050;2023-08-21T07:06:59;21.90;99.90
35258;DHT22;21385;50.878;8.050;2023-08-21T07:09:25;22.00;99.90
35258;DHT22;21385;50.878;8.050;2023-08-21T07:11:51;22.10;99.90
35258;DHT22;21385;50.878;8.050;2023-08-21T07:14:17;22.20;99.90
35258;DHT22;21385;50.878;8.050;2023-08-21T07:16:43;22.30;99.90
35258;DHT22;21385;50.878;8.050;2023-08-21T07:19:09;22.30;99.90
35258;DHT22;21385;50.878;8.050;2023-08-21T07:21:34;22.50;99.90
35258;DHT22;21385;50.878;8.050;2023-08-21T07:24:04;22.60;99.90
35258;DHT22;21385;50.878;8.050;2023-08-21T07:26:30;22.70;99.90
35258;DHT22;21385;50.878;8.050;2023-08-21T07:28:55;22.80;99.90
35258;DHT22;21385;50.878;8.050;2023-08-21T07:31:22;22.90;99.90
35258;DHT22;21385;50.878;8.050;2023-08-21T07:33:47;23.00;99.90
35258;DHT22;21385;50.878;8.050;2023-08-21T07:36:13;23.10;99.90
35258;DHT22;21385;50.878;8.050;2023-08-21T07:38:43;23.20;99.90
35258;DHT22;21385;50.878;8.050;2023-08-21T07:41:10;23.30;99.90
35258;DHT22;21385;50.878;8.050;2023-08-21T07:43:37;23.40;99.90
35258;DHT22;21385;50.878;8.050;2023-08-21T07:46:07;23.50;99.90
35258;DHT22;21385;50.878;8.050;2023-08-21T07:48:32;23.60;99.90
35258;DHT22;21385;50.878;8.050;2023-08-21T07:50:58;23.70;99.90
35258;DHT22;21385;50.878;8.050;2023-08-21T07:53:25;23.90;99.90
35258;DHT22;21385;50.878;8.050;2023-08-21T07:55:51;24.00;99.90
35258;DHT22;21385;50.878;8.050;2023-08-21T07:58:17;24.10;99.90
35258;DHT22;21385;50.878;8.050;2023-08-21T08:00:43;24.20;99.90
35258;DHT22;21385;50.878;8.050;2023-08-21T08:03:09;24.30;99.90
35258;DHT22;21385;50.878;8.050;2023-08-21T08:05:36;24.40;99.90
35258;DHT22;21385;50.878;8.050;2023-08-21T08:08:01;24.50;99.90
35258;DHT22;21385;50.878;8.050;2023-08-21T08:10:27;24.60;99.90
35258;DHT22;21385;50.878;8.050;2023-08-21T08:12:53;24.70;99.90
35258;DHT22;21385;50.878;8.050;2023-08-21T08:15:20;24.80;99.90
35258;DHT22;21385;50.878;8.050;2023-08-21T08:17:45;24.90;99.90
35258;DHT22;21385;50.878;8.050;2023-08-21T08:20:12;25.10;99.90
35258;DHT22;21385;50.878;8.050;2023-08-21T08:22:37;25.20;99.90
35258;DHT22;21385;50.878;8.050;2023-08-21T08:25:04;25.30;99.90
35258;DHT22;21385;50.878;8.050;2023-08-21T08:27:31;25.40;99.90
35258;DHT22;21385;50.878;8.050;2023-08-21T08:29:57;25.50;99.90
35258;DHT22;21385;50.878;8.050;2023-08-21T08:32:23;25.60;99.90
35258;DHT22;21385;50.878;8.050;2023-08-21T08:34:48;25.60;99.90
35258;DHT22;21385;50.878;8.050;2023-08-21T08:37:14;25.80;99.90
35258;DHT22;21385;50.878;8.050;2023-08-21T08:39:40;25.90;99.90
35258;DHT22;21385;50.878;8.050;2023-08-21T08:42:06;26.00;99.90
35258;DHT22;21385;50.878;8.050;2023-08-21T08:44:34;26.00;99.90
35258;DHT22;21385;50.878;8.050;2023-08-21T08:47:01;26.00;99.90
35258;DHT22;21385;50.878;8.050;2023-08-21T08:49:27;26.10;99.90
35258;DHT22;21385;50.878;8.050;2023-08-21T08:51:54;26.20;99.90
35258;DHT22;21385;50.878;8.050;2023-08-21T08:54:21;26.30;99.90
35258;DHT22;21385;50.878;8.050;2023-08-21T08:56:47;26.50;99.90
35258;DHT22;21385;50.878;8.050;2023-08-21T08:59:13;26.50;99.90
35258;DHT22;21385;50.878;8.050;2023-08-21T09:01:41;26.60;99.90
35258;DHT22;21385;50.878;8.050;2023-08-21T09:04:07;26.80;99.90
35258;DHT22;21385;50.878;8.050;2023-08-21T09:06:33;26.90;99.90
35258;DHT22;21385;50.878;8.050;2023-08-21T09:08:59;27.00;99.90
35258;DHT22;21385;50.878;8.050;2023-08-21T09:11:25;27.10;99.90
35258;DHT22;21385;50.878;8.050;2023-08-21T09:13:52;27.20;99.90
35258;DHT22;21385;50.878;8.050;2023-08-21T09:16:18;27.30;99.90
35258;DHT22;21385;50.878;8.050;2023-08-21T09:18:55;27.40;99.90
35258;DHT22;21385;50.878;8.050;2023-08-21T09:21:22;27.50;99.90
35258;DHT22;21385;50.878;8.050;2023-08-21T09:23:56;27.40;99.90
35258;DHT22;21385;50.878;8.050;2023-08-21T09:26:23;27.50;99.90
35258;DHT22;21385;50.878;8.050;2023-08-21T09:28:50;27.70;99.90
35258;DHT22;21385;50.878;8.050;2023-08-21T09:31:22;27.90;99.90
35258;DHT22;21385;50.878;8.050;2023-08-21T09:34:00;28.10;99.90
35258;DHT22;21385;50.878;8.050;2023-08-21T09:36:30;28.10;99.90
35258;DHT22;21385;50.878;8.050;2023-08-21T09:38:56;28.20;99.90
35258;DHT22;21385;50.878;8.050;2023-08-21T09:41:23;28.30;99.90
35258;DHT22;21385;50.878;8.050;2023-08-21T09:43:49;28.40;99.90
35258;DHT22;21385;50.878;8.050;2023-08-21T09:46:16;28.30;99.90
35258;DHT22;21385;50.878;8.050;2023-08-21T09:48:44;28.40;99.90
35258;DHT22;21385;50.878;8.050;2023-08-21T09:51:10;28.40;99.90
35258;DHT22;21385;50.878;8.050;2023-08-21T09:53:37;28.40;99.90
35258;DHT22;21385;50.878;8.050;2023-08-21T09:56:03;28.50;99.90
35258;DHT22;21385;50.878;8.050;2023-08-21T09:58:29;28.40;99.90
35258;DHT22;21385;50.878;8.050;2023-08-21T10:00:59;28.50;99.90
35258;DHT22;21385;50.878;8.050;2023-08-21T10:03:26;28.60;99.90
35258;DHT22;21385;50.878;8.050;2023-08-21T10:05:54;28.70;99.90
35258;DHT22;21385;50.878;8.050;2023-08-21T10:08:25;28.90;99.90
35258;DHT22;21385;50.878;8.050;2023-08-21T10:10:51;29.00;99.90
35258;DHT22;21385;50.878;8.050;2023-08-21T10:13:17;29.10;99.90
35258;DHT22;21385;50.878;8.050;2023-08-21T10:15:43;29.10;99.90
35258;DHT22;21385;50.878;8.050;2023-08-21T10:18:22;29.10;99.90
35258;DHT22;21385;50.878;8.050;2023-08-21T10:20:52;29.30;99.90
35258;DHT22;21385;50.878;8.050;2023-08-21T10:23:29;29.40;99.90
35258;DHT22;21385;50.878;8.050;2023-08-21T10:26:00;29.40;99.90
35258;DHT22;21385;50.878;8.050;2023-08-21T10:28:50;29.50;99.90
35258;DHT22;21385;50.878;8.050;2023-08-21T10:31:34;29.50;99.90
35258;DHT22;21385;50.878;8.050;2023-08-21T10:34:13;29.60;99.50
35258;DHT22;21385;50.878;8.050;2023-08-21T10:39:17;29.70;99.10
35258;DHT22;21385;50.878;8.050;2023-08-21T10:42:06;29.70;99.90
35258;DHT22;21385;50.878;8.050;2023-08-21T10:44:53;29.80;99.40
35258;DHT22;21385;50.878;8.050;2023-08-21T10:47:23;30.00;99.60
35258;DHT22;21385;50.878;8.050;2023-08-21T10:49:54;30.00;99.80
35258;DHT22;21385;50.878;8.050;2023-08-21T10:52:25;29.90;98.30
35258;DHT22;21385;50.878;8.050;2023-08-21T10:54:55;29.70;98.70
35258;DHT22;21385;50.878;8.050;2023-08-21T10:57:25;29.60;99.00
35258;DHT22;21385;50.878;8.050;2023-08-21T11:02:41;29.60;99.90
35258;DHT22;21385;50.878;8.050;2023-08-21T11:05:08;29.70;99.50
35258;DHT22;21385;50.878;8.050;2023-08-21T11:07:38;29.70;99.60
35258;DHT22;21385;50.878;8.050;2023-08-21T11:10:06;29.60;99.90
35258;DHT22;21385;50.878;8.050;2023-08-21T11:12:32;29.60;99.50
35258;DHT22;21385;50.878;8.050;2023-08-21T11:14:58;29.50;99.20
35258;DHT22;21385;50.878;8.050;2023-08-21T11:17:23;29.60;99.40
35258;DHT22;21385;50.878;8.050;2023-08-21T11:19:49;29.50;98.40
35258;DHT22;21385;50.878;8.050;2023-08-21T11:22:16;29.50;99.30
35258;DHT22;21385;50.878;8.050;2023-08-21T11:27:09;29.40;96.80
35258;DHT22;21385;50.878;8.050;2023-08-21T11:29:47;29.20;98.60
35258;DHT22;21385;50.878;8.050;2023-08-21T11:32:22;29.10;99.10
35258;DHT22;21385;50.878;8.050;2023-08-21T11:37:25;28.80;99.20
35258;DHT22;21385;50.878;8.050;2023-08-21T11:42:19;28.70;98.80
35258;DHT22;21385;50.878;8.050;2023-08-21T11:44:52;28.70;98.70
35258;DHT22;21385;50.878;8.050;2023-08-21T11:47:21;28.60;97.50
35258;DHT22;21385;50.878;8.050;2023-08-21T11:49:48;28.60;97.90
35258;DHT22;21385;50.878;8.050;2023-08-21T11:52:21;28.70;98.10
35258;DHT22;21385;50.878;8.050;2023-08-21T11:54:52;28.80;99.00
35258;DHT22;21385;50.878;8.050;2023-08-21T11:57:18;29.00;98.20
35258;DHT22;21385;50.878;8.050;2023-08-21T11:59:58;29.00;97.70
35258;DHT22;21385;50.878;8.050;2023-08-21T12:02:25;29.00;98.10
35258;DHT22;21385;50.878;8.050;2023-08-21T12:04:52;28.90;98.50
35258;DHT22;21385;50.878;8.050;2023-08-21T12:07:18;28.90;98.60
35258;DHT22;21385;50.878;8.050;2023-08-21T12:09:47;28.90;98.00
35258;DHT22;21385;50.878;8.050;2023-08-21T12:12:14;29.00;97.30
35258;DHT22;21385;50.878;8.050;2023-08-21T12:14:40;29.40;97.20
35258;DHT22;21385;50.878;8.050;2023-08-21T12:17:05;29.80;96.90
35258;DHT22;21385;50.878;8.050;2023-08-21T12:19:31;30.20;96.90
35258;DHT22;21385;50.878;8.050;2023-08-21T12:21:56;30.20;96.50
35258;DHT22;21385;50.878;8.050;2023-08-21T12:24:24;30.30;97.50
35258;DHT22;21385;50.878;8.050;2023-08-21T12:26:49;30.20;96.90
35258;DHT22;21385;50.878;8.050;2023-08-21T12:29:15;30.00;97.00
35258;DHT22;21385;50.878;8.050;2023-08-21T12:31:41;30.00;97.90
35258;DHT22;21385;50.878;8.050;2023-08-21T12:34:06;30.20;95.80
35258;DHT22;21385;50.878;8.050;2023-08-21T12:36:35;30.40;95.20
35258;DHT22;21385;50.878;8.050;2023-08-21T12:39:02;30.70;95.80
35258;DHT22;21385;50.878;8.050;2023-08-21T12:41:28;31.10;92.90
35258;DHT22;21385;50.878;8.050;2023-08-21T12:43:53;31.20;94.10
35258;DHT22;21385;50.878;8.050;2023-08-21T12:46:19;31.10;93.50
35258;DHT22;21385;50.878;8.050;2023-08-21T12:48:45;31.00;93.50
35258;DHT22;21385;50.878;8.050;2023-08-21T12:51:10;30.90;93.10
35258;DHT22;21385;50.878;8.050;2023-08-21T12:53:36;30.70;92.90
35258;DHT22;21385;50.878;8.050;2023-08-21T12:56:01;30.50;92.50
35258;DHT22;21385;50.878;8.050;2023-08-21T12:58:29;30.30;93.30
35258;DHT22;21385;50.878;8.050;2023-08-21T13:00:54;30.20;93.90
35258;DHT22;21385;50.878;8.050;2023-08-21T13:03:20;30.20;94.70
35258;DHT22;21385;50.878;8.050;2023-08-21T13:05:45;30.10;95.10
35258;DHT22;21385;50.878;8.050;2023-08-21T13:08:11;30.00;95.10
35258;DHT22;21385;50.878;8.050;2023-08-21T13:10:37;29.90;96.10
35258;DHT22;21385;50.878;8.050;2023-08-21T13:13:02;29.90;95.50
35258;DHT22;21385;50.878;8.050;2023-08-21T13:15:28;29.90;95.20
35258;DHT22;21385;50.878;8.050;2023-08-21T13:17:54;29.90;94.60
35258;DHT22;21385;50.878;8.050;2023-08-21T13:20:20;29.90;95.30
35258;DHT22;21385;50.878;8.050;2023-08-21T13:22:50;30.10;94.80
35258;DHT22;21385;50.878;8.050;2023-08-21T13:25:22;30.30;95.40
35258;DHT22;21385;50.878;8.050;2023-08-21T13:27:49;30.60;94.60
35258;DHT22;21385;50.878;8.050;2023-08-21T13:30:15;31.00;95.10
35258;DHT22;21385;50.878;8.050;2023-08-21T13:32:42;31.50;94.50
35258;DHT22;21385;50.878;8.050;2023-08-21T13:35:08;31.90;93.10
35258;DHT22;21385;50.878;8.050;2023-08-21T13:37:34;31.90;91.80
35258;DHT22;21385;50.878;8.050;2023-08-21T13:40:01;31.80;91.40
35258;DHT22;21385;50.878;8.050;2023-08-21T13:42:34;31.60;92.70
35258;DHT22;21385;50.878;8.050;2023-08-21T13:45:02;31.50;91.10
35258;DHT22;21385;50.878;8.050;2023-08-21T13:47:29;31.30;90.50
35258;DHT22;21385;50.878;8.050;2023-08-21T13:49:54;31.40;91.70
35258;DHT22;21385;50.878;8.050;2023-08-21T13:52:20;31.80;91.70
35258;DHT22;21385;50.878;8.050;2023-08-21T13:54:46;32.20;90.60
35258;DHT22;21385;50.878;8.050;2023-08-21T13:57:11;32.80;91.00
35258;DHT22;21385;50.878;8.050;2023-08-21T13:59:37;33.00;88.30
35258;DHT22;21385;50.878;8.050;2023-08-21T14:02:02;33.20;90.10
35258;DHT22;21385;50.878;8.050;2023-08-21T14:04:29;33.10;89.30
35258;DHT22;21385;50.878;8.050;2023-08-21T14:06:55;33.10;88.70
35258;DHT22;21385;50.878;8.050;2023-08-21T14:09:21;33.00;87.20
35258;DHT22;21385;50.878;8.050;2023-08-21T14:11:46;32.70;88.30
35258;DHT22;21385;50.878;8.050;2023-08-21T14:14:12;32.30;90.30
35258;DHT22;21385;50.878;8.050;2023-08-21T14:16:37;32.10;90.70
35258;DHT22;21385;50.878;8.050;2023-08-21T14:19:03;32.20;90.40
35258;DHT22;21385;50.878;8.050;2023-08-21T14:21:28;32.40;90.00
35258;DHT22;21385;50.878;8.050;2023-08-21T14:23:54;32.50;90.60
35258;DHT22;21385;50.878;8.050;2023-08-21T14:26:20;32.60;87.70
35258;DHT22;21385;50.878;8.050;2023-08-21T14:28:45;32.30;89.10
35258;DHT22;21385;50.878;8.050;2023-08-21T14:31:16;31.80;90.30
35258;DHT22;21385;50.878;8.050;2023-08-21T14:33:41;31.50;90.20
35258;DHT22;21385;50.878;8.050;2023-08-21T14:36:07;31.10;91.10
35258;DHT22;21385;50.878;8.050;2023-08-21T14:38:32;31.00;91.80
35258;DHT22;21385;50.878;8.050;2023-08-21T14:40:58;30.90;91.60
35258;DHT22;21385;50.878;8.050;2023-08-21T14:43:24;30.90;92.20
35258;DHT22;21385;50.878;8.050;2023-08-21T14:45:49;30.90;91.40
35258;DHT22;21385;50.878;8.050;2023-08-21T14:48:16;30.90;91.60
35258;DHT22;21385;50.878;8.050;2023-08-21T14:50:41;30.70;92.30
35258;DHT22;21385;50.878;8.050;2023-08-21T14:53:07;30.60;93.00
35258;DHT22;21385;50.878;8.050;2023-08-21T14:55:33;30.60;93.10
35258;DHT22;21385;50.878;8.050;2023-08-21T14:57:59;30.60;93.20
35258;DHT22;21385;50.878;8.050;2023-08-21T15:00:24;30.50;93.90
35258;DHT22;21385;50.878;8.050;2023-08-21T15:02:50;30.40;93.50
35258;DHT22;21385;50.878;8.050;2023-08-21T15:05:15;30.30;93.70
35258;DHT22;21385;50.878;8.050;2023-08-21T15:07:42;30.40;94.10
35258;DHT22;21385;50.878;8.050;2023-08-21T15:10:09;30.40;93.80
35258;DHT22;21385;50.878;8.050;2023-08-21T15:12:35;30.50;93.70
35258;DHT22;21385;50.878;8.050;2023-08-21T15:15:00;30.60;93.10
35258;DHT22;21385;50.878;8.050;2023-08-21T15:17:26;30.70;92.60
35258;DHT22;21385;50.878;8.050;2023-08-21T15:19:53;30.70;92.90
35258;DHT22;21385;50.878;8.050;2023-08-21T15:22:19;30.90;92.40
35258;DHT22;21385;50.878;8.050;2023-08-21T15:24:46;31.10;92.30
35258;DHT22;21385;50.878;8.050;2023-08-21T15:27:12;31.30;91.40
35258;DHT22;21385;50.878;8.050;2023-08-21T15:29:41;31.30;91.50
35258;DHT22;21385;50.878;8.050;2023-08-21T15:32:07;31.30;91.90
35258;DHT22;21385;50.878;8.050;2023-08-21T15:34:32;31.20;91.20
35258;DHT22;21385;50.878;8.050;2023-08-21T15:36:58;31.10;91.10
35258;DHT22;21385;50.878;8.050;2023-08-21T15:39:24;31.00;91.60
35258;DHT22;21385;50.878;8.050;2023-08-21T15:41:49;31.00;92.50
35258;DHT22;21385;50.878;8.050;2023-08-21T15:44:15;31.10;91.90